sensor_id;sensor_type;location;lat;lon;timestamp;temperature;humidity
2897;DHT22;1458;49.728;9.228;2023-04-29T00:02:13;12.00;99.90
2897;DHT22;1458;49.728;9.228;2023-04-29T00:04:40;12.10;99.90
2897;DHT22;1458;49.728;9.228;2023-04-29T00:07:08;12.00;99.90
2897;DHT22;1458;49.728;9.228;2023-04-29T00:09:40;12.00;99.90
2897;DHT22;1458;49.728;9.228;2023-04-29T00:12:07;11.90;99.90
2897;DHT22;1458;49.728;9.228;2023-04-29T00:14:35;11.90;99.90
2897;DHT22;1458;49.728;9.228;2023-04-29T00:17:04;11.90;99.90
2897;DHT22;1458;49.728;9.228;2023-04-29T00:19:32;11.70;99.90
2897;DHT22;1458;49.728;9.228;2023-04-29T00:22:00;11.70;99.90
2897;DHT22;1458;49.728;9.228;2023-04-29T00:24:27;11.70;99.90
2897;DHT22;1458;49.728;9.228;2023-04-29T00:26:54;11.70;99.90
2897;DHT22;1458;49.728;9.228;2023-04-29T00:29:22;11.60;99.90
2897;DHT22;1458;49.728;9.228;2023-04-29T00:31:50;11.60;99.90
2897;DHT22;1458;49.728;9.228;2023-04-29T00:34:18;11.70;99.90
2897;DHT22;1458;49.728;9.228;2023-04-29T00:36:46;11.80;99.90
2897;DHT22;1458;49.728;9.228;2023-04-29T00:39:14;11.70;99.90
2897;DHT22;1458;49.728;9.228;2023-04-29T00:41:41;11.70;99.90
2897;DHT22;1458;49.728;9.228;2023-04-29T00:44:08;11.70;99.90
2897;DHT22;1458;49.728;9.228;2023-04-29T00:46:36;11.90;99.90
2897;DHT22;1458;49.728;9.228;2023-04-29T00:49:03;11.90;99.90
2897;DHT22;1458;49.728;9.228;2023-04-29T00:51:32;11.80;99.90
2897;DHT22;1458;49.728;9.228;2023-04-29T00:54:01;11.80;99.90
2897;DHT22;1458;49.728;9.228;2023-04-29T00:56:31;11.90;99.90
2897;DHT22;1458;49.728;9.228;2023-04-29T00:59:01;11.90;99.90
2897;DHT22;1458;49.728;9.228;2023-04-29T01:01:29;12.00;99.90
2897;DHT22;1458;49.728;9.228;2023-04-29T01:03:57;12.00;99.90
2897;DHT22;1458;49.728;9.228;2023-04-29T01:06:32;11.90;99.90
2897;DHT22;1458;49.728;9.228;2023-04-29T01:09:17;11.90;99.90
2897;DHT22;1458;49.728;9.228;2023-04-29T01:12:04;11.80;99.90
2897;DHT22;1458;49.728;9.228;2023-04-29T01:14:35;11.70;99.90
2897;DHT22;1458;49.728;9.228;2023-04-29T01:17:08;11.70;99.90
2897;DHT22;1458;49.728;9.228;2023-04-29T01:19:44;11.60;99.90
2897;DHT22;1458;49.728;9.228;2023-04-29T01:22:16;11.50;99.90
2897;DHT22;1458;49.728;9.228;2023-04-29T01:24:48;11.40;99.90
2897;DHT22;1458;49.728;9.228;2023-04-29T01:27:24;11.50;99.90
2897;DHT22;1458;49.728;9.228;2023-04-29T01:30:09;11.60;99.90
2897;DHT22;1458;49.728;9.228;2023-04-29T01:32:51;11.70;99.90
2897;DHT22;1458;49.728;9.228;2023-04-29T01:35:32;11.90;99.90
2897;DHT22;1458;49.728;9.228;2023-04-29T01:38:16;11.90;99.90
2897;DHT22;1458;49.728;9.228;2023-04-29T01:40:58;11.90;99.90
2897;DHT22;1458;49.728;9.228;2023-04-29T01:43:35;11.90;99.90
2897;DHT22;1458;49.728;9.228;2023-04-29T01:46:15;12.00;99.90
2897;DHT22;1458;49.728;9.228;2023-04-29T01:48:44;12.10;99.90
2897;DHT22;1458;49.728;9.228;2023-04-29T01:51:12;12.00;99.90
2897;DHT22;1458;49.728;9.228;2023-04-29T01:53:40;12.00;99.90
2897;DHT22;1458;49.728;9.228;2023-04-29T01:56:09;12.10;99.90
2897;DHT22;1458;49.728;9.228;2023-04-29T01:58:54;12.10;99.90
2897;DHT22;1458;49.728;9.228;2023-04-29T02:01:25;12.10;99.90
2897;DHT22;1458;49.728;9.228;2023-04-29T02:03:52;12.00;99.90
2897;DHT22;1458;49.728;9.228;2023-04-29T02:06:20;11.90;99.90
2897;DHT22;1458;49.728;9.228;2023-04-29T02:08:54;11.90;99.90
2897;DHT22;1458;49.728;9.228;2023-04-29T02:11:23;11.90;99.90
2897;DHT22;1458;49.728;9.228;2023-04-29T02:13:53;11.90;99.90
2897;DHT22;1458;49.728;9.228;2023-04-29T02:16:22;11.80;99.90
2897;DHT22;1458;49.728;9.228;2023-04-29T02:18:56;11.80;99.90
2897;DHT22;1458;49.728;9.228;2023-04-29T02:21:24;11.80;99.90
2897;DHT22;1458;49.728;9.228;2023-04-29T02:23:52;11.80;99.90
2897;DHT22;1458;49.728;9.228;2023-04-29T02:26:23;11.80;99.90
2897;DHT22;1458;49.728;9.228;2023-04-29T02:28:53;11.80;99.90
2897;DHT22;1458;49.728;9.228;2023-04-29T02:31:22;11.90;99.90
2897;DHT22;1458;49.728;9.228;2023-04-29T02:33:49;11.90;99.90
2897;DHT22;1458;49.728;9.228;2023-04-29T02:36:17;12.00;99.90
2897;DHT22;1458;49.728;9.228;2023-04-29T02:38:44;12.00;99.90
2897;DHT22;1458;49.728;9.228;2023-04-29T02:41:15;11.90;99.90
2897;DHT22;1458;49.728;9.228;2023-04-29T02:43:45;11.90;99.90
2897;DHT22;1458;49.728;9.228;2023-04-29T02:46:14;11.90;99.90
2897;DHT22;1458;49.728;9.228;2023-04-29T02:48:41;12.00;99.90
2897;DHT22;1458;49.728;9.228;2023-04-29T02:51:09;12.00;99.90
2897;DHT22;1458;49.728;9.228;2023-04-29T02:53:36;12.10;99.90
2897;DHT22;1458;49.728;9.228;2023-04-29T02:56:04;12.10;99.90
2897;DHT22;1458;49.728;9.228;2023-04-29T02:58:32;12.10;99.90
2897;DHT22;1458;49.728;9.228;2023-04-29T03:01:01;12.00;99.90
2897;DHT22;1458;49.728;9.228;2023-04-29T03:03:29;11.90;99.90
2897;DHT22;1458;49.728;9.228;2023-04-29T03:05:57;11.90;99.90
2897;DHT22;1458;49.728;9.228;2023-04-29T03:08:24;12.00;99.90
2897;DHT22;1458;49.728;9.228;2023-04-29T03:10:52;11.90;99.90
2897;DHT22;1458;49.728;9.228;2023-04-29T03:13:20;11.90;99.90
2897;DHT22;1458;49.728;9.228;2023-04-29T03:15:47;11.90;99.90
2897;DHT22;1458;49.728;9.228;2023-04-29T03:18:16;11.90;99.90
2897;DHT22;1458;49.728;9.228;2023-04-29T03:20:44;11.90;99.90
2897;DHT22;1458;49.728;9.228;2023-04-29T03:23:11;11.90;99.90
2897;DHT22;1458;49.728;9.228;2023-04-29T03:25:39;12.10;99.90
2897;DHT22;1458;49.728;9.228;2023-04-29T03:28:06;12.10;99.90
2897;DHT22;1458;49.728;9.228;2023-04-29T03:30:34;12.10;99.90
2897;DHT22;1458;49.728;9.228;2023-04-29T03:33:02;12.00;99.90
2897;DHT22;1458;49.728;9.228;2023-04-29T03:35:34;11.90;99.90
2897;DHT22;1458;49.728;9.228;2023-04-29T03:38:33;12.00;99.90
2897;DHT22;1458;49.728;9.228;2023-04-29T03:41:03;12.00;99.90
2897;DHT22;1458;49.728;9.228;2023-04-29T03:43:31;12.00;99.90
2897;DHT22;1458;49.728;9.228;2023-04-29T03:45:59;12.00;99.90
2897;DHT22;1458;49.728;9.228;2023-04-29T03:48:26;12.00;99.90
2897;DHT22;1458;49.728;9.228;2023-04-29T03:50:55;12.00;99.90
2897;DHT22;1458;49.728;9.228;2023-04-29T03:53:23;12.00;99.90
2897;DHT22;1458;49.728;9.228;2023-04-29T03:55:51;12.00;99.90
2897;DHT22;1458;49.728;9.228;2023-04-29T03:58:19;12.00;99.90
2897;DHT22;1458;49.728;9.228;2023-04-29T04:00:48;12.00;99.90
2897;DHT22;1458;49.728;9.228;2023-04-29T04:03:20;12.00;99.90
2897;DHT22;1458;49.728;9.228;2023-04-29T04:05:50;12.00;99.90
2897;DHT22;1458;49.728;9.228;2023-04-29T04:08:19;12.10;99.90
2897;DHT22;1458;49.728;9.228;2023-04-29T04:10:53;12.00;99.90
2897;DHT22;1458;49.728;9.228;2023-04-29T04:13:56;12.00;99.90
2897;DHT22;1458;49.728;9.228;2023-04-29T04:16:24;12.00;99.90
2897;DHT22;1458;49.728;9.228;2023-04-29T04:18:51;12.00;99.90
2897;DHT22;1458;49.728;9.228;2023-04-29T04:21:19;12.00;99.90
2897;DHT22;1458;49.728;9.228;2023-04-29T04:23:56;12.00;99.90
2897;DHT22;1458;49.728;9.228;2023-04-29T04:26:24;12.00;99.90
2897;DHT22;1458;49.728;9.228;2023-04-29T04:28:54;12.00;99.90
2897;DHT22;1458;49.728;9.228;2023-04-29T04:31:41;12.00;99.90
2897;DHT22;1458;49.728;9.228;2023-04-29T04:34:09;12.10;99.90
2897;DHT22;1458;49.728;9.228;2023-04-29T04:36:37;12.10;99.90
2897;DHT22;1458;49.728;9.228;2023-04-29T04:39:06;12.10;99.90
2897;DHT22;1458;49.728;9.228;2023-04-29T04:41:34;12.10;99.90
2897;DHT22;1458;49.728;9.228;2023-04-29T04:44:03;12.10;99.90
2897;DHT22;1458;49.728;9.228;2023-04-29T04:46:55;12.10;99.90
2897;DHT22;1458;49.728;9.228;2023-04-29T04:49:41;12.10;99.90
2897;DHT22;1458;49.728;9.228;2023-04-29T04:52:09;12.10;99.90
2897;DHT22;1458;49.728;9.228;2023-04-29T04:54:38;12.20;99.90
2897;DHT22;1458;49.728;9.228;2023-04-29T04:57:14;12.10;99.90
2897;DHT22;1458;49.728;9.228;2023-04-29T04:59:41;12.20;99.90
2897;DHT22;1458;49.728;9.228;2023-04-29T05:02:09;12.20;99.90
2897;DHT22;1458;49.728;9.228;2023-04-29T05:04:39;12.30;99.90
2897;DHT22;1458;49.728;9.228;2023-04-29T05:07:07;12.30;99.90
2897;DHT22;1458;49.728;9.228;2023-04-29T05:09:56;12.30;99.90
2897;DHT22;1458;49.728;9.228;2023-04-29T05:12:24;12.30;99.90
2897;DHT22;1458;49.728;9.228;2023-04-29T05:14:56;12.20;99.90
2897;DHT22;1458;49.728;9.228;2023-04-29T05:17:25;12.30;99.90
2897;DHT22;1458;49.728;9.228;2023-04-29T05:19:52;12.30;99.90
2897;DHT22;1458;49.728;9.228;2023-04-29T05:22:20;12.30;99.90
2897;DHT22;1458;49.728;9.228;2023-04-29T05:24:48;12.30;99.90
2897;DHT22;1458;49.728;9.228;2023-04-29T05:27:19;12.30;99.90
2897;DHT22;1458;49.728;9.228;2023-04-29T05:29:46;12.40;99.90
2897;DHT22;1458;49.728;9.228;2023-04-29T05:32:14;12.40;99.90
2897;DHT22;1458;49.728;9.228;2023-04-29T05:34:41;12.50;99.90
2897;DHT22;1458;49.728;9.228;2023-04-29T05:37:09;12.60;99.90
2897;DHT22;1458;49.728;9.228;2023-04-29T05:39:51;12.80;99.90
2897;DHT22;1458;49.728;9.228;2023-04-29T05:42:20;12.80;99.90
2897;DHT22;1458;49.728;9.228;2023-04-29T05:44:49;12.90;99.90
2897;DHT22;1458;49.728;9.228;2023-04-29T05:47:17;13.00;99.90
2897;DHT22;1458;49.728;9.228;2023-04-29T05:49:44;13.00;99.90
2897;DHT22;1458;49.728;9.228;2023-04-29T05:52:12;13.10;99.90
2897;DHT22;1458;49.728;9.228;2023-04-29T05:54:44;13.20;99.90
2897;DHT22;1458;49.728;9.228;2023-04-29T05:57:12;13.20;99.90
2897;DHT22;1458;49.728;9.228;2023-04-29T05:59:41;13.30;99.90
2897;DHT22;1458;49.728;9.228;2023-04-29T06:02:08;13.40;99.90
2897;DHT22;1458;49.728;9.228;2023-04-29T06:04:39;13.40;99.90
2897;DHT22;1458;49.728;9.228;2023-04-29T06:07:33;13.40;99.90
2897;DHT22;1458;49.728;9.228;2023-04-29T06:10:09;13.40;99.90
2897;DHT22;1458;49.728;9.228;2023-04-29T06:12:39;13.50;99.90
2897;DHT22;1458;49.728;9.228;2023-04-29T06:15:09;13.50;99.90
2897;DHT22;1458;49.728;9.228;2023-04-29T06:17:37;13.50;99.90
2897;DHT22;1458;49.728;9.228;2023-04-29T06:20:07;13.50;99.90
2897;DHT22;1458;49.728;9.228;2023-04-29T06:22:38;13.60;99.90
2897;DHT22;1458;49.728;9.228;2023-04-29T06:25:06;13.70;99.90
2897;DHT22;1458;49.728;9.228;2023-04-29T06:27:48;13.70;99.90
2897;DHT22;1458;49.728;9.228;2023-04-29T06:30:19;13.60;99.90
2897;DHT22;1458;49.728;9.228;2023-04-29T06:32:46;13.60;99.90
2897;DHT22;1458;49.728;9.228;2023-04-29T06:35:14;13.60;99.90
2897;DHT22;1458;49.728;9.228;2023-04-29T06:38:00;13.60;99.90
2897;DHT22;1458;49.728;9.228;2023-04-29T06:40:34;13.50;99.90
2897;DHT22;1458;49.728;9.228;2023-04-29T06:43:27;13.50;99.90
2897;DHT22;1458;49.728;9.228;2023-04-29T06:46:14;13.60;99.90
2897;DHT22;1458;49.728;9.228;2023-04-29T06:48:54;13.70;99.90
2897;DHT22;1458;49.728;9.228;2023-04-29T06:51:22;13.80;99.90
2897;DHT22;1458;49.728;9.228;2023-04-29T06:53:50;13.80;99.90
2897;DHT22;1458;49.728;9.228;2023-04-29T06:56:19;13.90;99.90
2897;DHT22;1458;49.728;9.228;2023-04-29T06:58:48;14.00;99.90
2897;DHT22;1458;49.728;9.228;2023-04-29T07:01:17;14.10;99.90
2897;DHT22;1458;49.728;9.228;2023-04-29T07:03:45;14.10;99.90
2897;DHT22;1458;49.728;9.228;2023-04-29T07:06:12;14.30;99.90
2897;DHT22;1458;49.728;9.228;2023-04-29T07:08:40;14.40;99.90
2897;DHT22;1458;49.728;9.228;2023-04-29T07:11:08;14.40;99.90
2897;DHT22;1458;49.728;9.228;2023-04-29T07:13:35;14.50;99.90
2897;DHT22;1458;49.728;9.228;2023-04-29T07:16:03;14.70;99.90
2897;DHT22;1458;49.728;9.228;2023-04-29T07:18:32;14.90;99.90
2897;DHT22;1458;49.728;9.228;2023-04-29T07:21:00;15.10;99.90
2897;DHT22;1458;49.728;9.228;2023-04-29T07:23:28;15.00;99.90
2897;DHT22;1458;49.728;9.228;2023-04-29T07:25:55;15.00;99.90
2897;DHT22;1458;49.728;9.228;2023-04-29T07:28:22;15.10;99.90
2897;DHT22;1458;49.728;9.228;2023-04-29T07:30:52;15.10;99.90
2897;DHT22;1458;49.728;9.228;2023-04-29T07:33:19;15.20;99.90
2897;DHT22;1458;49.728;9.228;2023-04-29T07:35:48;15.30;99.90
2897;DHT22;1458;49.728;9.228;2023-04-29T07:38:16;15.50;99.90
2897;DHT22;1458;49.728;9.228;2023-04-29T07:40:43;15.60;99.90
2897;DHT22;1458;49.728;9.228;2023-04-29T07:43:11;15.70;99.90
2897;DHT22;1458;49.728;9.228;2023-04-29T07:45:39;15.70;99.90
2897;DHT22;1458;49.728;9.228;2023-04-29T07:48:06;15.80;99.90
2897;DHT22;1458;49.728;9.228;2023-04-29T07:50:34;15.80;99.90
2897;DHT22;1458;49.728;9.228;2023-04-29T07:53:06;16.00;99.90
2897;DHT22;1458;49.728;9.228;2023-04-29T07:55:36;15.80;98.20
2897;DHT22;1458;49.728;9.228;2023-04-29T07:58:04;15.80;98.50
2897;DHT22;1458;49.728;9.228;2023-04-29T08:00:31;15.80;97.20
2897;DHT22;1458;49.728;9.228;2023-04-29T08:02:59;15.90;96.30
2897;DHT22;1458;49.728;9.228;2023-04-29T08:05:27;15.80;95.60
2897;DHT22;1458;49.728;9.228;2023-04-29T08:07:55;15.80;93.90
2897;DHT22;1458;49.728;9.228;2023-04-29T08:10:26;15.90;93.50
2897;DHT22;1458;49.728;9.228;2023-04-29T08:12:54;16.00;94.40
2897;DHT22;1458;49.728;9.228;2023-04-29T08:15:24;16.00;93.00
2897;DHT22;1458;49.728;9.228;2023-04-29T08:17:53;15.80;92.70
2897;DHT22;1458;49.728;9.228;2023-04-29T08:20:21;15.70;92.20
2897;DHT22;1458;49.728;9.228;2023-04-29T08:22:48;15.60;92.60
2897;DHT22;1458;49.728;9.228;2023-04-29T08:25:16;15.40;92.70
2897;DHT22;1458;49.728;9.228;2023-04-29T08:27:45;15.30;93.70
2897;DHT22;1458;49.728;9.228;2023-04-29T08:30:13;15.20;93.20
2897;DHT22;1458;49.728;9.228;2023-04-29T08:32:40;15.00;94.00
2897;DHT22;1458;49.728;9.228;2023-04-29T08:35:09;15.00;93.20
2897;DHT22;1458;49.728;9.228;2023-04-29T08:37:36;15.10;94.10
2897;DHT22;1458;49.728;9.228;2023-04-29T08:40:05;15.20;94.20
2897;DHT22;1458;49.728;9.228;2023-04-29T08:42:35;15.50;93.00
2897;DHT22;1458;49.728;9.228;2023-04-29T08:45:07;15.40;93.10
2897;DHT22;1458;49.728;9.228;2023-04-29T08:47:35;15.30;93.10
2897;DHT22;1458;49.728;9.228;2023-04-29T08:50:04;14.70;91.80
2897;DHT22;1458;49.728;9.228;2023-04-29T08:52:33;14.50;92.50
2897;DHT22;1458;49.728;9.228;2023-04-29T08:55:01;14.70;91.40
2897;DHT22;1458;49.728;9.228;2023-04-29T08:57:34;14.90;91.10
2897;DHT22;1458;49.728;9.228;2023-04-29T09:00:07;15.00;90.70
2897;DHT22;1458;49.728;9.228;2023-04-29T09:02:40;14.70;91.00
2897;DHT22;1458;49.728;9.228;2023-04-29T09:05:11;14.70;90.50
2897;DHT22;1458;49.728;9.228;2023-04-29T09:07:40;14.50;89.40
2897;DHT22;1458;49.728;9.228;2023-04-29T09:10:08;14.50;91.00
2897;DHT22;1458;49.728;9.228;2023-04-29T09:12:36;14.60;91.00
2897;DHT22;1458;49.728;9.228;2023-04-29T09:15:06;14.70;90.30
2897;DHT22;1458;49.728;9.228;2023-04-29T09:17:39;14.60;90.30
2897;DHT22;1458;49.728;9.228;2023-04-29T09:20:25;14.50;91.20
2897;DHT22;1458;49.728;9.228;2023-04-29T09:22:54;14.50;91.50
2897;DHT22;1458;49.728;9.228;2023-04-29T09:25:23;14.70;90.30
2897;DHT22;1458;49.728;9.228;2023-04-29T09:27:52;15.10;90.10
2897;DHT22;1458;49.728;9.228;2023-04-29T09:30:21;15.40;87.90
2897;DHT22;1458;49.728;9.228;2023-04-29T09:33:06;16.00;87.20
2897;DHT22;1458;49.728;9.228;2023-04-29T09:35:35;16.40;82.80
2897;DHT22;1458;49.728;9.228;2023-04-29T09:38:10;16.60;80.10
2897;DHT22;1458;49.728;9.228;2023-04-29T09:40:40;16.40;77.10
2897;DHT22;1458;49.728;9.228;2023-04-29T09:43:12;16.20;77.70
2897;DHT22;1458;49.728;9.228;2023-04-29T09:45:43;15.90;78.50
2897;DHT22;1458;49.728;9.228;2023-04-29T09:48:12;16.10;81.10
2897;DHT22;1458;49.728;9.228;2023-04-29T09:50:41;15.90;78.70
2897;DHT22;1458;49.728;9.228;2023-04-29T09:53:10;16.20;80.90
2897;DHT22;1458;49.728;9.228;2023-04-29T09:55:58;15.80;78.90
2897;DHT22;1458;49.728;9.228;2023-04-29T09:58:27;15.60;80.20
2897;DHT22;1458;49.728;9.228;2023-04-29T10:00:59;15.50;82.00
2897;DHT22;1458;49.728;9.228;2023-04-29T10:03:31;15.40;82.50
2897;DHT22;1458;49.728;9.228;2023-04-29T10:06:00;15.30;82.80
2897;DHT22;1458;49.728;9.228;2023-04-29T10:08:29;15.20;83.80
2897;DHT22;1458;49.728;9.228;2023-04-29T10:10:59;15.30;84.40
2897;DHT22;1458;49.728;9.228;2023-04-29T10:13:30;15.60;83.10
2897;DHT22;1458;49.728;9.228;2023-04-29T10:16:10;15.70;82.50
2897;DHT22;1458;49.728;9.228;2023-04-29T10:18:48;15.70;81.80
2897;DHT22;1458;49.728;9.228;2023-04-29T10:21:21;15.60;82.10
2897;DHT22;1458;49.728;9.228;2023-04-29T10:23:55;15.70;81.40
2897;DHT22;1458;49.728;9.228;2023-04-29T10:26:25;15.70;80.90
2897;DHT22;1458;49.728;9.228;2023-04-29T10:28:55;15.70;81.70
2897;DHT22;1458;49.728;9.228;2023-04-29T10:31:26;15.50;84.10
2897;DHT22;1458;49.728;9.228;2023-04-29T10:33:55;15.20;81.50
2897;DHT22;1458;49.728;9.228;2023-04-29T10:36:24;15.20;83.00
2897;DHT22;1458;49.728;9.228;2023-04-29T10:38:57;15.10;82.50
2897;DHT22;1458;49.728;9.228;2023-04-29T10:41:27;15.10;83.50
2897;DHT22;1458;49.728;9.228;2023-04-29T10:43:58;15.10;83.50
2897;DHT22;1458;49.728;9.228;2023-04-29T10:46:27;15.20;83.30
2897;DHT22;1458;49.728;9.228;2023-04-29T10:48:56;15.20;83.00
2897;DHT22;1458;49.728;9.228;2023-04-29T10:51:31;15.20;83.30
2897;DHT22;1458;49.728;9.228;2023-04-29T10:54:00;15.10;80.90
2897;DHT22;1458;49.728;9.228;2023-04-29T10:56:37;15.00;82.20
2897;DHT22;1458;49.728;9.228;2023-04-29T10:59:15;15.00;83.50
2897;DHT22;1458;49.728;9.228;2023-04-29T11:01:47;15.10;82.40
2897;DHT22;1458;49.728;9.228;2023-04-29T11:04:19;15.30;82.20
2897;DHT22;1458;49.728;9.228;2023-04-29T11:06:51;15.50;81.10
2897;DHT22;1458;49.728;9.228;2023-04-29T11:09:20;15.60;79.90
2897;DHT22;1458;49.728;9.228;2023-04-29T11:12:01;15.60;78.70
2897;DHT22;1458;49.728;9.228;2023-04-29T11:14:40;15.30;79.90
2897;DHT22;1458;49.728;9.228;2023-04-29T11:17:12;15.50;78.60
2897;DHT22;1458;49.728;9.228;2023-04-29T11:19:41;15.50;77.90
2897;DHT22;1458;49.728;9.228;2023-04-29T11:22:13;15.70;79.30
2897;DHT22;1458;49.728;9.228;2023-04-29T11:24:53;15.90;77.90
2897;DHT22;1458;49.728;9.228;2023-04-29T11:27:23;16.10;78.40
2897;DHT22;1458;49.728;9.228;2023-04-29T11:29:53;16.00;77.20
2897;DHT22;1458;49.728;9.228;2023-04-29T11:32:29;16.30;77.80
2897;DHT22;1458;49.728;9.228;2023-04-29T11:35:07;16.60;76.30
2897;DHT22;1458;49.728;9.228;2023-04-29T11:37:35;16.40;76.10
2897;DHT22;1458;49.728;9.228;2023-04-29T11:40:04;16.20;76.40
2897;DHT22;1458;49.728;9.228;2023-04-29T11:42:33;16.00;77.20
2897;DHT22;1458;49.728;9.228;2023-04-29T11:45:01;15.60;77.50
2897;DHT22;1458;49.728;9.228;2023-04-29T11:47:30;15.50;77.40
2897;DHT22;1458;49.728;9.228;2023-04-29T11:50:02;15.30;80.40
2897;DHT22;1458;49.728;9.228;2023-04-29T11:52:32;15.40;80.60
2897;DHT22;1458;49.728;9.228;2023-04-29T11:54:59;15.50;80.00
2897;DHT22;1458;49.728;9.228;2023-04-29T11:57:27;15.60;78.70
2897;DHT22;1458;49.728;9.228;2023-04-29T11:59:56;15.60;79.00
2897;DHT22;1458;49.728;9.228;2023-04-29T12:02:29;15.40;78.70
2897;DHT22;1458;49.728;9.228;2023-04-29T12:04:57;15.40;79.30
2897;DHT22;1458;49.728;9.228;2023-04-29T12:07:26;15.20;80.10
2897;DHT22;1458;49.728;9.228;2023-04-29T12:09:54;15.10;81.10
2897;DHT22;1458;49.728;9.228;2023-04-29T12:12:22;14.90;82.10
2897;DHT22;1458;49.728;9.228;2023-04-29T12:14:50;14.90;82.50
2897;DHT22;1458;49.728;9.228;2023-04-29T12:17:18;14.80;83.40
2897;DHT22;1458;49.728;9.228;2023-04-29T12:19:47;14.80;84.00
2897;DHT22;1458;49.728;9.228;2023-04-29T12:22:15;14.80;84.70
2897;DHT22;1458;49.728;9.228;2023-04-29T12:24:42;14.90;86.50
2897;DHT22;1458;49.728;9.228;2023-04-29T12:27:10;15.10;86.40
2897;DHT22;1458;49.728;9.228;2023-04-29T12:29:38;15.40;84.70
2897;DHT22;1458;49.728;9.228;2023-04-29T12:32:06;15.40;84.10
2897;DHT22;1458;49.728;9.228;2023-04-29T12:34:34;15.50;83.00
2897;DHT22;1458;49.728;9.228;2023-04-29T12:37:03;15.50;83.80
2897;DHT22;1458;49.728;9.228;2023-04-29T12:39:31;15.40;82.10
2897;DHT22;1458;49.728;9.228;2023-04-29T12:41:59;15.30;83.20
2897;DHT22;1458;49.728;9.228;2023-04-29T12:44:34;15.40;83.70
2897;DHT22;1458;49.728;9.228;2023-04-29T12:47:07;15.50;83.10
2897;DHT22;1458;49.728;9.228;2023-04-29T12:49:38;15.40;81.30
2897;DHT22;1458;49.728;9.228;2023-04-29T12:52:09;15.40;83.20
2897;DHT22;1458;49.728;9.228;2023-04-29T12:54:37;15.70;83.30
2897;DHT22;1458;49.728;9.228;2023-04-29T12:57:06;15.80;82.20
2897;DHT22;1458;49.728;9.228;2023-04-29T12:59:34;16.20;80.90
2897;DHT22;1458;49.728;9.228;2023-04-29T13:02:01;16.10;80.50
2897;DHT22;1458;49.728;9.228;2023-04-29T13:04:29;16.20;79.60
2897;DHT22;1458;49.728;9.228;2023-04-29T13:06:57;16.40;78.80
2897;DHT22;1458;49.728;9.228;2023-04-29T13:09:27;16.40;77.00
2897;DHT22;1458;49.728;9.228;2023-04-29T13:11:55;16.80;77.80
2897;DHT22;1458;49.728;9.228;2023-04-29T13:14:23;17.00;76.00
2897;DHT22;1458;49.728;9.228;2023-04-29T13:16:51;17.00;72.50
2897;DHT22;1458;49.728;9.228;2023-04-29T13:19:19;17.10;74.00
2897;DHT22;1458;49.728;9.228;2023-04-29T13:21:50;17.60;72.20
2897;DHT22;1458;49.728;9.228;2023-04-29T13:24:17;17.70;71.10
2897;DHT22;1458;49.728;9.228;2023-04-29T13:26:47;17.70;71.00
2897;DHT22;1458;49.728;9.228;2023-04-29T13:29:14;17.60;71.10
2897;DHT22;1458;49.728;9.228;2023-04-29T13:31:42;17.70;71.20
2897;DHT22;1458;49.728;9.228;2023-04-29T13:34:09;17.60;70.20
2897;DHT22;1458;49.728;9.228;2023-04-29T13:36:37;17.30;69.90
2897;DHT22;1458;49.728;9.228;2023-04-29T13:39:04;17.40;68.10
2897;DHT22;1458;49.728;9.228;2023-04-29T13:41:32;17.20;68.80
2897;DHT22;1458;49.728;9.228;2023-04-29T13:44:01;17.20;68.70
2897;DHT22;1458;49.728;9.228;2023-04-29T13:46:28;17.10;68.90
2897;DHT22;1458;49.728;9.228;2023-04-29T13:48:57;17.00;71.10
2897;DHT22;1458;49.728;9.228;2023-04-29T13:51:25;17.10;70.50
2897;DHT22;1458;49.728;9.228;2023-04-29T13:53:55;17.00;71.20
2897;DHT22;1458;49.728;9.228;2023-04-29T13:56:23;16.80;70.50
2897;DHT22;1458;49.728;9.228;2023-04-29T13:58:51;16.80;70.00
2897;DHT22;1458;49.728;9.228;2023-04-29T14:01:20;16.70;70.10
2897;DHT22;1458;49.728;9.228;2023-04-29T14:03:49;16.70;70.60
2897;DHT22;1458;49.728;9.228;2023-04-29T14:06:19;16.50;70.90
2897;DHT22;1458;49.728;9.228;2023-04-29T14:08:46;16.90;70.50
2897;DHT22;1458;49.728;9.228;2023-04-29T14:11:14;17.00;69.90
2897;DHT22;1458;49.728;9.228;2023-04-29T14:13:42;16.60;71.50
2897;DHT22;1458;49.728;9.228;2023-04-29T14:16:09;16.40;72.80
2897;DHT22;1458;49.728;9.228;2023-04-29T14:18:38;16.50;72.00
2897;DHT22;1458;49.728;9.228;2023-04-29T14:21:06;16.50;72.60
2897;DHT22;1458;49.728;9.228;2023-04-29T14:23:33;16.50;72.00
2897;DHT22;1458;49.728;9.228;2023-04-29T14:26:01;16.50;72.70
2897;DHT22;1458;49.728;9.228;2023-04-29T14:28:28;16.60;72.50
2897;DHT22;1458;49.728;9.228;2023-04-29T14:30:56;16.60;72.40
2897;DHT22;1458;49.728;9.228;2023-04-29T14:33:23;16.50;71.10
2897;DHT22;1458;49.728;9.228;2023-04-29T14:35:52;16.80;73.90
2897;DHT22;1458;49.728;9.228;2023-04-29T14:38:20;16.60;73.60
2897;DHT22;1458;49.728;9.228;2023-04-29T14:40:47;16.70;73.10
2897;DHT22;1458;49.728;9.228;2023-04-29T14:43:14;16.60;72.90
2897;DHT22;1458;49.728;9.228;2023-04-29T14:45:42;16.40;71.90
2897;DHT22;1458;49.728;9.228;2023-04-29T14:48:10;16.20;74.10
2897;DHT22;1458;49.728;9.228;2023-04-29T14:50:38;16.10;74.60
2897;DHT22;1458;49.728;9.228;2023-04-29T14:53:07;16.00;77.20
2897;DHT22;1458;49.728;9.228;2023-04-29T14:55:35;16.00;75.80
2897;DHT22;1458;49.728;9.228;2023-04-29T14:58:02;15.90;76.40
2897;DHT22;1458;49.728;9.228;2023-04-29T15:00:30;15.90;77.40
2897;DHT22;1458;49.728;9.228;2023-04-29T15:02:57;15.80;77.30
2897;DHT22;1458;49.728;9.228;2023-04-29T15:05:25;15.80;78.50
2897;DHT22;1458;49.728;9.228;2023-04-29T15:07:52;15.90;77.10
2897;DHT22;1458;49.728;9.228;2023-04-29T15:10:28;15.60;78.40
2897;DHT22;1458;49.728;9.228;2023-04-29T15:12:56;15.50;80.40
2897;DHT22;1458;49.728;9.228;2023-04-29T15:15:24;15.50;79.30
2897;DHT22;1458;49.728;9.228;2023-04-29T15:17:51;15.40;80.40
2897;DHT22;1458;49.728;9.228;2023-04-29T15:20:22;15.30;80.60
2897;DHT22;1458;49.728;9.228;2023-04-29T15:22:49;15.20;78.60
2897;DHT22;1458;49.728;9.228;2023-04-29T15:25:17;15.00;78.40
2897;DHT22;1458;49.728;9.228;2023-04-29T15:27:46;15.10;78.20
2897;DHT22;1458;49.728;9.228;2023-04-29T15:30:14;15.00;79.10
2897;DHT22;1458;49.728;9.228;2023-04-29T15:32:42;15.10;79.90
2897;DHT22;1458;49.728;9.228;2023-04-29T15:35:09;15.10;79.20
2897;DHT22;1458;49.728;9.228;2023-04-29T15:37:37;15.30;78.90
2897;DHT22;1458;49.728;9.228;2023-04-29T15:40:06;15.40;79.40
2897;DHT22;1458;49.728;9.228;2023-04-29T15:42:34;15.50;77.90
2897;DHT22;1458;49.728;9.228;2023-04-29T15:45:04;15.60;78.80
2897;DHT22;1458;49.728;9.228;2023-04-29T15:47:33;15.70;76.90
2897;DHT22;1458;49.728;9.228;2023-04-29T15:50:01;15.90;77.10
2897;DHT22;1458;49.728;9.228;2023-04-29T15:52:28;15.90;76.30
2897;DHT22;1458;49.728;9.228;2023-04-29T15:54:55;15.80;75.00
2897;DHT22;1458;49.728;9.228;2023-04-29T15:57:23;15.80;77.00
2897;DHT22;1458;49.728;9.228;2023-04-29T15:59:51;15.80;77.00
2897;DHT22;1458;49.728;9.228;2023-04-29T16:02:20;15.90;77.30
2897;DHT22;1458;49.728;9.228;2023-04-29T16:04:47;15.80;76.40
2897;DHT22;1458;49.728;9.228;2023-04-29T16:07:15;16.00;75.90
2897;DHT22;1458;49.728;9.228;2023-04-29T16:09:43;16.00;77.10
2897;DHT22;1458;49.728;9.228;2023-04-29T16:12:10;15.90;77.10
2897;DHT22;1458;49.728;9.228;2023-04-29T16:14:38;16.00;77.10
2897;DHT22;1458;49.728;9.228;2023-04-29T16:17:06;15.90;75.50
2897;DHT22;1458;49.728;9.228;2023-04-29T16:19:34;15.70;76.90
2897;DHT22;1458;49.728;9.228;2023-04-29T16:22:02;15.60;78.60